Time;durP1;ratioP1;P1;durP2;ratioP2;P2;SDS_P1;SDS_P2;PMS_P1;PMS_P2;Temp;Humidity;BMP_temperature;BMP_pressure;BME280_temperature;BME280_humidity;BME280_pressure;Samples;Min_cycle;Max_cycle;Signal;HPM_P1;HPM_P2
2023/09/26 04:00:15;;;;;;;10.85;4.75;;;;;;;15.84;100.00;101167.50;6349208;27;20144;-85
2023/09/26 04:03:52;;;;;;;8.95;4.75;;;;;;;15.81;100.00;101161.63;5394817;33;34018;-86
2023/09/26 04:07:35;;;;;;;6.85;4.62;;;;;;;15.85;100.00;101165.63;5376779;33;34070;-87
2023/09/26 04:11:31;;;;;;;8.20;4.70;;;;;;;15.87;100.00;101158.97;5337268;33;33433;-87
2023/09/26 04:15:03;;;;;;;10.18;4.43;;;;;;;15.92;100.00;101161.12;5339677;33;33274;-87
2023/09/26 04:18:11;;;;;;;6.87;4.70;;;;;;;15.93;100.00;101164.69;5327761;33;33335;-87
2023/09/26 04:21:36;;;;;;;10.38;4.70;;;;;;;15.93;100.00;101170.94;5396790;33;32913;-87
2023/09/26 04:24:53;;;;;;;7.20;4.93;;;;;;;15.94;100.00;101171.78;5395033;33;31869;-91
2023/09/26 04:28:07;;;;;;;9.82;4.45;;;;;;;15.95;100.00;101171.59;5375139;33;32647;-87
2023/09/26 04:31:32;;;;;;;7.03;4.68;;;;;;;15.93;100.00;101170.94;5364960;33;31984;-87
2023/09/26 04:34:41;;;;;;;10.60;4.90;;;;;;;15.95;100.00;101174.31;5377967;33;31561;-87
2023/09/26 04:37:58;;;;;;;10.65;4.85;;;;;;;15.95;100.00;101174.31;5367297;33;32816;-87
2023/09/26 04:41:06;;;;;;;8.82;5.07;;;;;;;15.92;100.00;101184.72;5381958;33;33435;-87
2023/09/26 04:44:10;;;;;;;7.87;4.60;;;;;;;15.90;100.00;101184.91;5402461;33;33292;-87
2023/09/26 04:47:13;;;;;;;10.48;5.28;;;;;;;15.89;100.00;101191.38;5389812;33;34458;-87
2023/09/26 04:50:16;;;;;;;11.50;4.87;;;;;;;15.86;100.00;101186.34;5390820;33;33545;-87
2023/09/26 04:53:19;;;;;;;9.82;5.05;;;;;;;15.88;100.00;101186.97;5402066;33;33188;-87
2023/09/26 04:56:22;;;;;;;8.85;5.03;;;;;;;15.89;100.00;101194.09;5374189;33;33086;-87
2023/09/26 04:59:27;;;;;;;10.30;6.45;;;;;;;15.87;100.00;101196.16;5397002;33;34698;-87
2023/09/26 05:02:30;;;;;;;11.05;5.40;;;;;;;15.85;100.00;101192.78;5393540;33;33654;-87
2023/09/26 05:05:33;;;;;;;8.27;5.00;;;;;;;15.90;100.00;101193.06;5396140;33;32962;-87
2023/09/26 05:08:37;;;;;;;9.35;5.45;;;;;;;15.96;100.00;101197.72;5385888;33;34037;-87
2023/09/26 05:11:40;;;;;;;13.15;5.55;;;;;;;16.00;100.00;101204.47;5399443;33;33942;-87
2023/09/26 05:14:43;;;;;;;11.07;5.85;;;;;;;16.05;100.00;101196.56;5385730;33;33447;-87
2023/09/26 05:17:47;;;;;;;8.32;5.30;;;;;;;16.08;100.00;101198.88;5386102;33;34077;-87
2023/09/26 05:20:51;;;;;;;7.35;5.00;;;;;;;16.14;100.00;101199.16;5398579;33;34140;-87
2023/09/26 05:23:54;;;;;;;10.57;4.95;;;;;;;16.18;100.00;101193.16;5374786;33;33015;-87
2023/09/26 05:26:57;;;;;;;10.75;5.85;;;;;;;16.23;100.00;101204.28;5380115;33;33253;-87
2023/09/26 05:30:00;;;;;;;12.43;5.78;;;;;;;16.35;100.00;101195.56;5354051;33;33406;-87
2023/09/26 05:33:04;;;;;;;11.65;5.62;;;;;;;16.41;100.00;101209.25;5366779;33;33346;-87
2023/09/26 05:36:07;;;;;;;9.25;5.05;;;;;;;16.52;100.00;101205.12;5378314;33;33804;-87
2023/09/26 05:39:10;;;;;;;6.85;4.45;;;;;;;16.58;100.00;101201.62;5394903;33;33063;-87
2023/09/26 05:42:13;;;;;;;9.02;5.37;;;;;;;16.68;100.00;101209.44;5400055;33;34978;-87
2023/09/26 05:45:19;;;;;;;8.25;5.55;;;;;;;16.81;100.00;101206.00;5398434;33;33378;-87
2023/09/26 05:48:22;;;;;;;9.77;5.18;;;;;;;16.93;100.00;101209.84;5384339;33;33554;-87
2023/09/26 05:51:25;;;;;;;11.82;6.00;;;;;;;17.03;100.00;101204.06;5384090;33;33410;-87
2023/09/26 05:54:30;;;;;;;8.73;5.60;;;;;;;17.14;100.00;101208.94;5379026;33;33246;-90
2023/09/26 05:57:34;;;;;;;9.18;5.72;;;;;;;17.26;100.00;101211.91;5378908;33;32944;-91
2023/09/26 06:00:37;;;;;;;7.28;5.05;;;;;;;17.48;100.00;101210.78;5366276;32;33511;-91
2023/09/26 06:03:40;;;;;;;7.95;5.28;;;;;;;17.79;100.00;101204.84;5396645;33;33152;-87
2023/09/26 06:06:43;;;;;;;10.13;5.22;;;;;;;17.85;100.00;101206.75;5384441;33;33052;-87
2023/09/26 06:09:48;;;;;;;10.30;5.65;;;;;;;17.92;100.00;101209.50;5384970;33;33127;-87
2023/09/26 06:13:09;;;;;;;13.13;5.95;;;;;;;18.05;100.00;101209.53;5376811;33;33628;-87
2023/09/26 06:16:12;;;;;;;11.75;6.00;;;;;;;18.12;100.00;101206.81;5382201;33;33012;-87
2023/09/26 06:19:15;;;;;;;10.10;5.57;;;;;;;18.10;100.00;101208.91;5384083;33;34872;-87
2023/09/26 06:22:19;;;;;;;8.32;5.68;;;;;;;18.11;100.00;101205.16;5372330;33;34166;-87
2023/09/26 06:25:22;;;;;;;11.60;5.97;;;;;;;18.23;100.00;101213.53;5372093;33;33791;-87
2023/09/26 06:28:27;;;;;;;10.25;5.93;;;;;;;18.35;100.00;101209.16;5384406;33;33688;-87
2023/09/26 06:31:30;;;;;;;8.07;4.75;;;;;;;18.49;100.00;101205.38;5397768;33;33405;-87
2023/09/26 06:34:35;;;;;;;11.38;5.50;;;;;;;18.57;100.00;101205.19;5396141;32;34114;-87
2023/09/26 06:37:39;;;;;;;9.45;4.82;;;;;;;18.73;100.00;101203.94;5397304;32;33261;-87
2023/09/26 06:40:42;;;;;;;10.23;5.20;;;;;;;18.82;100.00;101199.09;5371517;33;33312;-87
2023/09/26 06:43:45;;;;;;;8.35;5.10;;;;;;;18.91;100.00;101208.72;5383338;33;34279;-87
2023/09/26 06:46:48;;;;;;;9.63;5.32;;;;;;;18.92;100.00;101204.09;5383929;33;33273;-86
2023/09/26 06:49:55;;;;;;;10.35;5.97;;;;;;;19.10;100.00;101201.56;5402605;32;32940;-86
2023/09/26 06:52:58;;;;;;;11.38;5.47;;;;;;;19.18;100.00;101201.31;5396140;33;33334;-87
2023/09/26 06:56:03;;;;;;;11.55;5.65;;;;;;;19.28;100.00;101202.78;5408662;32;34581;-86
2023/09/26 06:59:07;;;;;;;7.55;5.30;;;;;;;19.49;100.00;101208.75;5408444;32;34135;-87
2023/09/26 07:02:10;;;;;;;12.15;5.57;;;;;;;19.60;100.00;101206.44;5396583;33;33213;-87
2023/09/26 07:05:16;;;;;;;10.38;5.20;;;;;;;19.73;100.00;101202.81;5372299;33;33292;-87
2023/09/26 07:08:20;;;;;;;9.25;5.43;;;;;;;19.83;100.00;101206.75;5383924;33;33029;-87
2023/09/26 07:11:23;;;;;;;8.73;5.30;;;;;;;19.94;100.00;101205.19;5383010;33;33154;-86
2023/09/26 07:14:31;;;;;;;10.95;5.62;;;;;;;20.02;100.00;101209.59;5408035;32;33611;-86
2023/09/26 07:17:34;;;;;;;11.90;5.65;;;;;;;20.21;100.00;101205.03;5396881;33;33739;-86
2023/09/26 07:20:47;;;;;;;10.27;5.15;;;;;;;20.37;100.00;101209.97;5371781;33;34230;-86
2023/09/26 07:23:50;;;;;;;;;;;;;;;20.40;100.00;101206.78;5384469;33;33309;-86
2023/09/26 07:26:53;;;;;;;10.95;5.12;;;;;;;20.58;100.00;101208.75;5407643;32;33577;-86
2023/09/26 07:29:56;;;;;;;8.63;5.32;;;;;;;20.74;100.00;101202.72;5371693;33;33348;-86
2023/09/26 07:32:59;;;;;;;14.90;5.37;;;;;;;20.89;100.00;101213.31;5383767;33;34048;-86
2023/09/26 07:36:03;;;;;;;9.70;5.15;;;;;;;21.00;100.00;101214.47;5384518;33;34069;-86
2023/09/26 07:39:08;;;;;;;11.43;5.35;;;;;;;21.03;100.00;101216.75;5399405;33;33752;-90
2023/09/26 07:42:11;;;;;;;7.28;4.90;;;;;;;21.05;100.00;101220.09;5397819;33;33689;-90
2023/09/26 07:45:16;;;;;;;11.50;5.30;;;;;;;21.37;100.00;101220.00;5382927;33;33540;-90
2023/09/26 07:48:20;;;;;;;9.85;4.95;;;;;;;21.56;100.00;101212.59;5371196;33;33316;-87
2023/09/26 07:51:23;;;;;;;9.35;5.03;;;;;;;21.51;100.00;101230.56;5383330;33;33398;-86
2023/09/26 07:54:26;;;;;;;6.93;4.95;;;;;;;21.62;100.00;101226.22;5379999;32;33075;-87
2023/09/26 07:57:29;;;;;;;8.70;5.70;;;;;;;21.79;100.00;101236.53;5381377;33;33428;-87
2023/09/26 08:00:32;;;;;;;8.52;4.85;;;;;;;22.00;100.00;101233.31;5379196;33;33441;-86
2023/09/26 08:03:39;;;;;;;12.20;5.43;;;;;;;22.02;100.00;101231.16;5369514;32;33563;-86
2023/09/26 08:06:42;;;;;;;13.40;5.32;;;;;;;22.19;100.00;101236.84;5395663;32;33249;-86
2023/09/26 08:09:46;;;;;;;8.35;5.30;;;;;;;22.17;100.00;101230.75;5379627;32;33422;-86
2023/09/26 08:12:48;;;;;;;8.82;5.30;;;;;;;22.30;100.00;101233.31;5380586;33;33709;-84
2023/09/26 08:15:52;;;;;;;7.65;5.35;;;;;;;22.33;100.00;101229.25;5369629;33;33285;-88
2023/09/26 08:18:55;;;;;;;8.15;5.43;;;;;;;22.45;100.00;101232.84;5381476;32;32926;-88
2023/09/26 08:21:58;;;;;;;11.00;5.37;;;;;;;22.69;100.00;101230.16;5381164;32;34054;-88
2023/09/26 08:25:02;;;;;;;7.82;5.53;;;;;;;22.81;100.00;101228.25;5382902;33;34134;-88
2023/09/26 08:28:06;;;;;;;9.93;5.25;;;;;;;22.91;100.00;101224.91;5389031;32;33399;-88
2023/09/26 08:31:14;;;;;;;12.02;5.80;;;;;;;23.08;100.00;101218.47;5397346;32;32950;-88
2023/09/26 08:34:18;;;;;;;11.07;5.25;;;;;;;23.18;100.00;101222.53;5383962;33;33361;-88
2023/09/26 08:37:21;;;;;;;8.50;5.30;;;;;;;23.30;100.00;101215.09;5381396;32;33381;-87
2023/09/26 08:40:25;;;;;;;11.18;5.05;;;;;;;23.57;100.00;101220.03;5387287;32;33030;-87
2023/09/26 08:43:28;;;;;;;9.10;5.78;;;;;;;23.42;100.00;101212.31;5398559;33;33347;-87
2023/09/26 08:46:31;;;;;;;8.00;5.55;;;;;;;23.60;100.00;101214.06;5384910;33;33471;-87
2023/09/26 08:49:39;;;;;;;6.60;5.00;;;;;;;23.64;100.00;101216.09;5397442;33;33042;-87
2023/09/26 08:52:43;;;;;;;6.00;5.40;;;;;;;23.77;100.00;101206.75;5398463;33;33692;-87
2023/09/26 08:55:48;;;;;;;7.22;5.00;;;;;;;23.97;100.00;101209.87;5397899;33;34228;-87
2023/09/26 08:58:55;;;;;;;8.20;5.28;;;;;;;24.26;100.00;101203.50;5394722;32;33939;-87
2023/09/26 09:01:57;;;;;;;8.80;4.90;;;;;;;24.26;98.47;101200.75;5397445;33;33860;-87
2023/09/26 09:05:01;;;;;;;10.75;5.18;;;;;;;24.23;97.53;101202.09;5372321;33;33469;-87
2023/09/26 09:08:05;;;;;;;10.18;5.35;;;;;;;24.37;99.33;101197.09;5384784;33;33878;-87
2023/09/26 09:11:09;;;;;;;5.90;4.97;;;;;;;24.28;96.95;101201.31;5384360;33;33490;-87
2023/09/26 09:14:12;;;;;;;8.88;5.30;;;;;;;24.30;100.00;101196.41;5397865;33;31943;-87
2023/09/26 09:17:15;;;;;;;10.45;5.20;;;;;;;24.49;98.35;101199.81;5383363;33;33328;-87
2023/09/26 09:20:32;;;;;;;7.47;5.20;;;;;;;24.70;95.76;101195.44;5371618;33;34195;-87
2023/09/26 09:23:52;;;;;;;14.85;5.40;;;;;;;24.86;95.64;101194.56;5394853;33;34063;-87
2023/09/26 09:26:54;;;;;;;12.45;5.20;;;;;;;24.93;94.05;101186.16;5397896;33;33105;-92
2023/09/26 09:30:11;;;;;;;6.20;4.75;;;;;;;25.06;91.70;101194.88;5374187;33;33216;-88
2023/09/26 09:33:15;;;;;;;7.37;4.82;;;;;;;25.39;88.54;101186.78;5401016;33;34107;-87
2023/09/26 09:36:19;;;;;;;13.80;5.22;;;;;;;25.26;85.21;101182.50;5405552;33;33556;-88
2023/09/26 09:39:22;;;;;;;9.13;4.80;;;;;;;25.38;81.55;101177.66;5408523;32;33855;-88
2023/09/26 09:42:26;;;;;;;6.65;4.65;;;;;;;25.45;80.52;101180.25;5370641;33;33274;-87
2023/09/26 09:45:33;;;;;;;6.53;4.30;;;;;;;25.52;82.78;101170.69;5396116;33;34478;-87
2023/09/26 09:48:42;;;;;;;6.27;3.90;;;;;;;25.45;77.96;101172.81;5397386;33;33473;-87
2023/09/26 09:51:47;;;;;;;11.47;4.83;;;;;;;25.50;74.61;101172.84;5395910;32;33271;-87
2023/09/26 09:54:56;;;;;;;10.75;4.40;;;;;;;25.50;71.47;101166.50;5395145;33;33008;-87
2023/09/26 09:58:09;;;;;;;8.73;4.47;;;;;;;25.53;69.76;101158.53;5395891;32;33798;-87
2023/09/26 10:01:13;;;;;;;10.63;4.40;;;;;;;25.69;70.05;101156.81;5396781;33;32978;-87
2023/09/26 10:04:18;;;;;;;5.50;4.15;;;;;;;26.02;70.00;101146.66;5386882;33;33426;-87
2023/09/26 10:07:27;;;;;;;8.27;4.55;;;;;;;26.01;69.08;101143.09;5384237;33;33307;-87
2023/09/26 10:10:32;;;;;;;9.95;4.32;;;;;;;26.00;71.22;101135.91;5384423;33;33842;-87
2023/09/26 10:13:35;;;;;;;5.82;4.18;;;;;;;25.97;73.93;101136.44;5386899;33;33241;-87
2023/09/26 10:16:41;;;;;;;6.85;4.15;;;;;;;26.36;67.21;101143.66;5381275;33;32974;-87
2023/09/26 10:19:44;;;;;;;6.00;4.07;;;;;;;26.52;65.18;101133.56;5401131;32;33678;-85
2023/09/26 10:23:10;;;;;;;5.37;4.10;;;;;;;26.50;64.15;101133.84;5421160;32;34799;-87
2023/09/26 10:26:13;;;;;;;7.72;4.00;;;;;;;26.49;62.04;101123.00;5409033;32;34073;-87
2023/09/26 10:29:20;;;;;;;6.45;4.40;;;;;;;26.71;61.23;101131.22;5371176;33;33254;-87
2023/09/26 10:32:33;;;;;;;12.40;4.22;;;;;;;26.59;61.89;101121.19;5396246;32;33806;-87
2023/09/26 10:35:43;;;;;;;8.60;4.20;;;;;;;26.88;63.69;101121.63;5387579;32;33233;-92
2023/09/26 10:39:00;;;;;;;7.45;4.78;;;;;;;26.97;63.95;101107.28;5395871;32;33170;-87
2023/09/26 10:42:14;;;;;;;9.10;4.25;;;;;;;27.38;61.59;101116.59;5396157;33;34072;-87
2023/09/26 10:45:36;;;;;;;7.20;4.20;;;;;;;27.26;57.86;101111.31;5397117;33;33270;-87
2023/09/26 10:48:40;;;;;;;6.87;4.10;;;;;;;27.56;57.23;101105.03;5384266;33;33100;-87
2023/09/26 10:51:43;;;;;;;5.25;3.97;;;;;;;27.94;57.28;101096.53;5396966;33;33186;-87
2023/09/26 10:54:46;;;;;;;7.32;4.00;;;;;;;28.32;54.27;101089.56;5371779;33;33319;-87
2023/09/26 10:57:50;;;;;;;6.50;4.15;;;;;;;28.66;54.26;101095.31;5383499;33;33514;-87
2023/09/26 11:00:53;;;;;;;7.10;3.72;;;;;;;28.88;52.07;101096.94;5396240;33;33728;-87
2023/09/26 11:03:56;;;;;;;8.25;3.75;;;;;;;29.04;53.51;101090.22;5370952;33;32195;-87
2023/09/26 11:07:02;;;;;;;6.80;3.80;;;;;;;29.31;50.77;101083.44;5382958;33;33064;-87
2023/09/26 11:10:10;;;;;;;7.07;3.50;;;;;;;29.56;48.94;101090.78;5395875;33;33270;-87
2023/09/26 11:13:16;;;;;;;5.50;3.62;;;;;;;30.08;48.69;101082.91;5395557;32;33387;-88
2023/09/26 11:16:19;;;;;;;8.73;3.90;;;;;;;30.43;49.57;101084.53;5382970;33;32960;-87
2023/09/26 11:19:24;;;;;;;5.43;3.70;;;;;;;30.76;44.92;101073.59;5370954;33;34509;-87
2023/09/26 11:22:27;;;;;;;4.62;3.65;;;;;;;31.03;42.05;101067.44;5396102;32;34530;-87
2023/09/26 11:25:33;;;;;;;4.90;3.67;;;;;;;31.06;42.43;101064.06;5396330;32;33480;-88
2023/09/26 11:28:37;;;;;;;5.95;3.42;;;;;;;31.60;41.52;101066.38;5376754;32;33593;-87
2023/09/26 11:31:41;;;;;;;9.82;3.70;;;;;;;31.96;36.62;101056.63;5383639;33;34036;-88
2023/09/26 11:34:44;;;;;;;7.28;3.72;;;;;;;33.15;36.40;101054.03;5383323;33;34133;-88
2023/09/26 11:37:49;;;;;;;3.97;3.45;;;;;;;32.76;34.12;101052.59;5382456;33;32904;-85
2023/09/26 11:40:55;;;;;;;6.80;3.40;;;;;;;33.34;34.08;101045.50;5383194;33;33444;-85
2023/09/26 11:44:09;;;;;;;4.50;3.22;;;;;;;33.75;32.68;101055.69;5395282;32;33405;-85
2023/09/26 11:47:12;;;;;;;8.07;4.18;;;;;;;34.73;31.59;101051.97;5383870;33;32984;-88
2023/09/26 11:50:16;;;;;;;5.03;3.22;;;;;;;36.18;30.34;101042.28;5394732;32;34094;-89
2023/09/26 11:53:21;;;;;;;7.18;3.42;;;;;;;37.60;28.60;101038.00;5395469;32;33816;-89
2023/09/26 11:56:28;;;;;;;5.78;3.60;;;;;;;38.09;26.75;101035.34;5396416;32;34428;-86
2023/09/26 11:59:30;;;;;;;4.82;3.35;;;;;;;38.97;27.59;101035.06;5381143;32;33683;-86
2023/09/26 12:02:39;;;;;;;6.90;3.12;;;;;;;40.11;24.33;101038.34;5397169;32;34124;-86
2023/09/26 12:05:41;;;;;;;;;;;;;;;39.67;24.17;101026.25;5383749;32;34148;-86
2023/09/26 12:08:44;;;;;;;3.75;3.08;;;;;;;40.21;22.66;101034.19;5385138;33;33329;-86
2023/09/26 12:11:49;;;;;;;6.55;3.70;;;;;;;39.16;23.28;101023.13;5383183;32;33061;-85
2023/09/26 12:15:16;;;;;;;5.37;3.30;;;;;;;40.43;21.23;101026.28;5384318;33;34127;-85
2023/09/26 12:18:19;;;;;;;6.45;3.00;;;;;;;40.23;21.98;101020.56;5398653;33;34485;-86
2023/09/26 12:21:22;;;;;;;6.78;3.00;;;;;;;39.56;21.67;101013.88;5384373;33;33301;-86
2023/09/26 12:24:25;;;;;;;4.43;2.92;;;;;;;40.54;20.76;101016.03;5398033;32;33340;-86
2023/09/26 12:27:27;;;;;;;5.62;3.17;;;;;;;41.64;21.03;100999.94;5384677;32;33379;-86
2023/09/26 12:30:31;;;;;;;5.95;3.25;;;;;;;41.53;19.82;101010.22;5384713;33;31875;-85
2023/09/26 12:33:33;;;;;;;8.50;3.00;;;;;;;41.72;20.24;101003.72;5397475;32;33277;-85
2023/09/26 12:36:39;;;;;;;6.30;2.92;;;;;;;42.67;18.73;101002.91;5372300;33;34172;-86
2023/09/26 12:39:42;;;;;;;7.17;3.07;;;;;;;42.38;18.89;101004.50;5398136;33;33373;-85
2023/09/26 12:42:45;;;;;;;6.50;2.45;;;;;;;41.98;19.21;101001.00;5372123;33;32806;-86
2023/09/26 12:45:48;;;;;;;5.75;2.70;;;;;;;42.43;18.84;100993.66;5397965;33;33414;-85
2023/09/26 12:48:54;;;;;;;4.10;3.08;;;;;;;43.42;18.16;100995.47;5387756;33;33397;-85
2023/09/26 12:51:56;;;;;;;7.00;2.85;;;;;;;42.61;18.95;100987.47;5372758;33;32888;-86
2023/09/26 12:55:00;;;;;;;8.05;2.90;;;;;;;43.20;18.12;100986.69;5384169;33;33156;-85
2023/09/26 12:58:03;;;;;;;6.47;2.97;;;;;;;43.19;18.46;100985.06;5398232;33;31951;-85
2023/09/26 13:01:06;;;;;;;3.22;2.53;;;;;;;44.21;17.54;100988.56;5380743;33;33388;-86
2023/09/26 13:04:09;;;;;;;3.87;2.72;;;;;;;43.61;17.43;100981.09;5396951;32;34188;-86
2023/09/26 13:07:12;;;;;;;8.07;2.72;;;;;;;42.74;17.74;100986.06;5373144;33;32974;-86
2023/09/26 13:10:15;;;;;;;5.90;2.83;;;;;;;42.52;17.87;100982.87;5373287;33;33618;-85
2023/09/26 13:13:19;;;;;;;5.82;2.90;;;;;;;38.45;20.70;100980.31;5397244;32;33039;-85
2023/09/26 13:16:22;;;;;;;5.22;2.80;;;;;;;39.04;20.65;100980.94;5369706;33;33007;-86
2023/09/26 13:19:25;;;;;;;7.05;2.53;;;;;;;41.67;19.14;100974.53;5380546;33;33400;-86
2023/09/26 13:22:28;;;;;;;5.65;2.72;;;;;;;42.90;18.14;100975.34;5383807;33;33316;-86
2023/09/26 13:25:31;;;;;;;4.60;2.75;;;;;;;42.07;18.59;100966.78;5397117;32;34239;-86
2023/09/26 13:28:34;;;;;;;3.55;2.72;;;;;;;39.05;20.60;100968.47;5384229;32;33550;-86
2023/09/26 13:31:42;;;;;;;4.07;2.40;;;;;;;38.76;21.51;100974.06;5364269;33;32799;-85
2023/09/26 13:34:47;;;;;;;4.18;2.55;;;;;;;38.25;21.06;100969.97;5398687;33;33935;-85
2023/09/26 13:37:50;;;;;;;4.68;2.90;;;;;;;37.56;21.91;100969.63;5385105;33;33328;-89
2023/09/26 13:40:53;;;;;;;5.37;2.70;;;;;;;37.45;21.94;100965.56;5393499;33;33023;-87
2023/09/26 13:43:56;;;;;;;4.22;2.55;;;;;;;38.69;21.25;100964.56;5397730;33;34522;-89
2023/09/26 13:46:59;;;;;;;2.80;2.42;;;;;;;37.43;22.11;100963.09;5404626;33;33615;-86
2023/09/26 13:50:03;;;;;;;7.75;2.80;;;;;;;35.34;23.60;100970.91;5371227;32;33647;-86
2023/09/26 13:53:06;;;;;;;3.20;2.33;;;;;;;34.63;25.14;100974.78;5368316;32;33207;-85
2023/09/26 13:56:09;;;;;;;3.08;2.42;;;;;;;34.17;23.70;100969.69;5381251;32;34585;-86
2023/09/26 13:59:12;;;;;;;4.47;2.50;;;;;;;33.02;25.59;100982.34;5371058;32;32313;-85
2023/09/26 14:02:18;;;;;;;4.78;2.75;;;;;;;32.44;26.19;100970.72;5383682;33;33360;-85
2023/09/26 14:05:23;;;;;;;7.03;2.92;;;;;;;31.08;27.89;100978.38;5372794;33;33435;-85
2023/09/26 14:08:27;;;;;;;4.62;2.78;;;;;;;30.19;28.98;100973.38;5384759;33;34351;-83
2023/09/26 14:11:30;;;;;;;8.23;3.00;;;;;;;29.24;31.40;100963.69;5384653;33;32976;-84
2023/09/26 14:14:34;;;;;;;5.32;2.92;;;;;;;29.01;32.25;100966.00;5384588;33;33312;-84
2023/09/26 14:17:37;;;;;;;5.80;2.70;;;;;;;28.13;33.17;100969.44;5397635;33;34126;-84
2023/09/26 14:20:40;;;;;;;3.78;2.95;;;;;;;27.94;33.35;100960.91;5384362;33;33095;-84
2023/09/26 14:23:44;;;;;;;7.50;3.53;;;;;;;27.80;33.49;100971.72;5383945;33;33399;-84
2023/09/26 14:26:49;;;;;;;4.78;3.20;;;;;;;27.71;34.56;100960.34;5372398;33;33552;-83
2023/09/26 14:29:54;;;;;;;4.70;3.40;;;;;;;27.58;35.06;100963.66;5384362;33;33231;-84
2023/09/26 14:32:57;;;;;;;7.43;2.92;;;;;;;27.35;34.75;100971.41;5370468;32;33383;-83
2023/09/26 14:36:01;;;;;;;5.40;3.10;;;;;;;27.07;34.45;100967.19;5370675;33;34418;-83
2023/09/26 14:39:04;;;;;;;8.88;3.60;;;;;;;27.07;35.13;100960.84;5365676;33;33351;-84
2023/09/26 14:42:07;;;;;;;5.53;3.08;;;;;;;26.88;35.57;100971.56;5376852;33;34576;-83
2023/09/26 14:45:11;;;;;;;7.97;2.97;;;;;;;26.80;35.99;100963.84;5384159;33;34426;-84
2023/09/26 14:48:14;;;;;;;6.85;3.15;;;;;;;26.74;36.02;100967.69;5383155;33;32979;-84
2023/09/26 14:51:17;;;;;;;15.35;3.58;;;;;;;26.54;36.59;100962.91;5383208;33;33734;-84
2023/09/26 14:54:20;;;;;;;5.78;3.40;;;;;;;26.50;36.83;100968.16;5371346;33;33487;-84
2023/09/26 14:57:22;;;;;;;8.68;3.70;;;;;;;26.39;37.69;100964.47;5397222;33;33446;-84
2023/09/26 15:00:26;;;;;;;6.78;3.47;;;;;;;26.26;37.62;100958.59;5371597;32;33351;-83
2023/09/26 15:03:29;;;;;;;6.62;3.20;;;;;;;26.19;37.92;100958.84;5383759;33;33297;-84
2023/09/26 15:06:39;;;;;;;7.78;3.30;;;;;;;26.11;38.57;100957.41;5373610;33;33116;-84
2023/09/26 15:09:42;;;;;;;5.03;2.97;;;;;;;26.08;38.96;100952.44;5384418;33;34568;-84
2023/09/26 15:12:45;;;;;;;7.90;3.72;;;;;;;25.97;39.90;100950.72;5389198;33;33636;-84
2023/09/26 15:15:48;;;;;;;5.12;3.40;;;;;;;25.92;39.54;100945.19;5388520;33;33736;-84
2023/09/26 15:18:51;;;;;;;5.45;3.70;;;;;;;25.90;40.26;100955.66;5395436;32;157327;-84
2023/09/26 15:21:54;;;;;;;5.50;3.78;;;;;;;25.91;41.02;100954.53;5385274;33;33362;-84
2023/09/26 15:24:58;;;;;;;7.95;3.35;;;;;;;25.80;41.08;100950.88;5373014;33;33163;-84
2023/09/26 15:28:00;;;;;;;7.28;3.60;;;;;;;25.63;41.72;100956.53;5383928;33;33164;-83
2023/09/26 15:31:05;;;;;;;3.65;3.20;;;;;;;25.61;42.31;100952.37;5372113;33;33414;-84
2023/09/26 15:34:08;;;;;;;4.05;3.28;;;;;;;25.51;42.11;100953.97;5384494;33;33446;-84
2023/09/26 15:37:11;;;;;;;6.40;3.75;;;;;;;25.52;42.54;100950.09;5397708;33;34648;-84
2023/09/26 15:40:14;;;;;;;7.10;3.70;;;;;;;25.49;42.89;100950.62;5388295;33;34542;-84
2023/09/26 15:43:17;;;;;;;7.22;3.80;;;;;;;25.38;43.12;100948.03;5373486;33;34772;-84
2023/09/26 15:46:22;;;;;;;7.82;3.78;;;;;;;25.26;43.59;100949.03;5384697;33;33159;-88
2023/09/26 15:49:26;;;;;;;4.78;3.37;;;;;;;25.21;43.73;100946.22;5373238;33;33218;-88
2023/09/26 15:52:41;;;;;;;8.88;3.35;;;;;;;25.10;43.98;100948.03;5398148;33;33458;-85
2023/09/26 15:55:44;;;;;;;5.40;3.83;;;;;;;24.97;44.26;100955.87;5384318;33;33626;-85
